Time;durP1;ratioP1;P1;durP2;ratioP2;P2;SDS_P1;SDS_P2;PMS_P1;PMS_P2;Temp;Humidity;BMP_temperature;BMP_pressure;BME280_temperature;BME280_humidity;BME280_pressure;Samples;Min_cycle;Max_cycle;Signal;HPM_P1;HPM_P2
2022/05/23 00:01:54;;;;;;;0.50;0.30;;;16.60;99.90;;;;;;5077021;28;21012;-83
2022/05/23 00:04:22;;;;;;;0.50;0.30;;;16.60;99.90;;;;;;5076800;28;20447;-84
2022/05/23 00:06:49;;;;;;;0.50;0.40;;;16.70;99.90;;;;;;5076061;28;20470;-83
2022/05/23 00:09:17;;;;;;;0.50;0.40;;;16.60;99.90;;;;;;5076516;28;20443;-83
2022/05/23 00:11:44;;;;;;;0.50;0.30;;;16.60;99.90;;;;;;5076880;28;20439;-84
2022/05/23 00:14:11;;;;;;;0.50;0.33;;;16.50;99.90;;;;;;5076048;28;20436;-84
2022/05/23 00:16:41;;;;;;;0.50;0.30;;;16.40;99.90;;;;;;5076449;28;20452;-85
2022/05/23 00:19:09;;;;;;;7.10;2.00;;;16.50;99.90;;;;;;5075725;28;20425;-85
2022/05/23 00:21:38;;;;;;;0.50;0.40;;;16.50;99.90;;;;;;5076154;28;20472;-82
2022/05/23 00:24:06;;;;;;;0.50;0.40;;;16.50;99.90;;;;;;5075577;28;20444;-82
2022/05/23 00:26:33;;;;;;;0.50;0.37;;;16.50;99.90;;;;;;5076222;28;20468;-83
2022/05/23 00:28:59;;;;;;;0.50;0.40;;;16.50;99.90;;;;;;5076349;28;20440;-84
2022/05/23 00:31:26;;;;;;;0.50;0.40;;;16.50;99.90;;;;;;5075888;28;20438;-83
2022/05/23 00:36:39;;;;;;;0.50;0.40;;;16.60;99.90;;;;;;5076311;28;20444;-83
2022/05/23 00:39:06;;;;;;;0.50;0.40;;;16.60;99.90;;;;;;5075127;28;20446;-82
2022/05/23 00:44:23;;;;;;;0.50;0.40;;;16.60;99.90;;;;;;5076868;28;20468;-82
2022/05/23 00:46:51;;;;;;;0.50;0.40;;;16.50;99.90;;;;;;5078749;28;20452;-83
2022/05/23 00:49:21;;;;;;;0.50;0.40;;;16.50;99.90;;;;;;5079609;28;20440;-84
2022/05/23 00:51:50;;;;;;;0.50;0.30;;;16.50;99.90;;;;;;5079672;28;20439;-82
2022/05/23 00:54:17;;;;;;;0.50;0.40;;;16.50;99.90;;;;;;5079678;28;20462;-84
2022/05/23 00:56:46;;;;;;;0.50;0.40;;;16.50;99.90;;;;;;5078724;28;20465;-82
2022/05/23 00:59:17;;;;;;;0.50;0.40;;;16.40;99.90;;;;;;5078764;28;20445;-83
2022/05/23 01:01:44;;;;;;;0.50;0.50;;;16.40;99.90;;;;;;5079421;28;20472;-83
2022/05/23 01:04:11;;;;;;;0.50;0.30;;;16.40;99.90;;;;;;5079014;28;20958;-83
2022/05/23 01:06:38;;;;;;;0.77;0.77;;;16.30;99.90;;;;;;5078700;28;20466;-84
2022/05/23 01:09:06;;;;;;;0.50;0.40;;;16.30;99.90;;;;;;5078650;28;20441;-84
2022/05/23 01:11:32;;;;;;;0.50;0.40;;;16.30;99.90;;;;;;5078839;28;20437;-84
2022/05/23 01:13:59;;;;;;;0.50;0.40;;;16.30;99.90;;;;;;5078596;28;20463;-82
2022/05/23 01:16:27;;;;;;;0.50;0.40;;;16.30;99.90;;;;;;5078601;28;20472;-84
2022/05/23 01:18:54;;;;;;;0.50;0.30;;;16.20;99.90;;;;;;5078251;28;20583;-82
2022/05/23 01:21:33;;;;;;;0.50;0.40;;;16.20;99.90;;;;;;5078196;28;20473;-83
2022/05/23 01:24:07;;;;;;;1.63;1.53;;;16.10;99.90;;;;;;5078697;28;20480;-84
2022/05/23 01:26:35;;;;;;;0.50;0.40;;;16.10;99.90;;;;;;5078815;28;20464;-82
2022/05/23 01:29:02;;;;;;;0.50;0.40;;;16.10;99.90;;;;;;5078154;28;20444;-82
2022/05/23 01:31:29;;;;;;;0.50;0.40;;;16.10;99.90;;;;;;5078704;28;20431;-83
2022/05/23 01:33:57;;;;;;;0.50;0.40;;;16.20;99.90;;;;;;5077962;28;20432;-80
2022/05/23 01:36:23;;;;;;;0.50;0.40;;;16.20;99.90;;;;;;5077828;28;20891;-83
2022/05/23 01:38:50;;;;;;;0.50;0.30;;;16.20;99.90;;;;;;5077835;28;20961;-83
2022/05/23 01:41:17;;;;;;;0.50;0.40;;;16.20;99.90;;;;;;5078656;28;20479;-83
2022/05/23 01:43:45;;;;;;;0.50;0.30;;;16.20;99.90;;;;;;5078559;28;20441;-83
2022/05/23 01:46:11;;;;;;;0.50;0.40;;;16.20;99.90;;;;;;5078114;28;20818;-82
2022/05/23 01:48:38;;;;;;;0.50;0.40;;;16.10;99.90;;;;;;5077934;28;20444;-83
2022/05/23 01:51:05;;;;;;;0.50;0.40;;;16.20;99.90;;;;;;5078165;28;21022;-84
2022/05/23 01:53:32;;;;;;;1.80;1.70;;;16.20;99.90;;;;;;5078450;28;20808;-83
2022/05/23 01:56:03;;;;;;;0.50;0.40;;;16.30;99.90;;;;;;5076304;28;20465;-83
2022/05/23 02:01:16;;;;;;;0.50;0.40;;;16.30;99.90;;;;;;5077836;28;20457;-82
2022/05/23 02:03:44;;;;;;;0.50;0.40;;;16.30;99.90;;;;;;5078125;28;20439;-82
2022/05/23 02:06:11;;;;;;;0.50;0.30;;;16.30;99.90;;;;;;5076682;28;21074;-83
2022/05/23 02:08:39;;;;;;;0.50;0.33;;;16.30;99.90;;;;;;5077558;28;20441;-81
2022/05/23 02:11:06;;;;;;;0.60;0.50;;;16.30;99.90;;;;;;5079963;28;20443;-83
2022/05/23 02:13:34;;;;;;;0.50;0.40;;;16.20;99.90;;;;;;5077995;28;20441;-82
2022/05/23 02:16:01;;;;;;;0.50;0.40;;;16.20;99.90;;;;;;5077409;28;20460;-83
2022/05/23 02:18:30;;;;;;;0.50;0.40;;;16.20;99.90;;;;;;5077265;28;20844;-82
2022/05/23 02:20:58;;;;;;;0.50;0.40;;;16.20;99.90;;;;;;5077260;28;20468;-84
2022/05/23 02:23:25;;;;;;;0.50;0.40;;;16.20;99.90;;;;;;5076974;28;21002;-84
2022/05/23 02:25:52;;;;;;;0.50;0.40;;;16.20;99.90;;;;;;5077769;28;20491;-83
2022/05/23 02:28:19;;;;;;;0.50;0.40;;;16.10;99.90;;;;;;5076979;28;20463;-84
2022/05/23 02:30:47;;;;;;;0.50;0.40;;;16.10;99.90;;;;;;5077242;28;20439;-82
2022/05/23 02:33:14;;;;;;;0.50;0.30;;;16.10;99.90;;;;;;5077355;28;20499;-84
2022/05/23 02:35:42;;;;;;;0.50;0.40;;;16.10;99.90;;;;;;5077049;28;20457;-83
2022/05/23 02:38:09;;;;;;;0.50;0.30;;;16.20;99.90;;;;;;5077568;28;20445;-83
2022/05/23 02:40:36;;;;;;;0.50;0.40;;;16.20;99.90;;;;;;5077917;28;20468;-81
2022/05/23 02:43:02;;;;;;;0.50;0.37;;;16.20;99.90;;;;;;5078182;28;20425;-83
2022/05/23 02:45:29;;;;;;;0.50;0.33;;;16.20;99.90;;;;;;5077415;28;20463;-83
2022/05/23 02:47:56;;;;;;;0.50;0.30;;;16.20;99.90;;;;;;5076590;28;20429;-82
2022/05/23 02:50:22;;;;;;;0.50;0.40;;;16.20;99.90;;;;;;5075721;28;20443;-84
2022/05/23 02:52:51;;;;;;;0.50;0.40;;;16.20;99.90;;;;;;5076787;28;20647;-82
2022/05/23 02:55:18;;;;;;;0.50;0.30;;;16.20;99.90;;;;;;5076913;28;21025;-83
2022/05/23 02:57:44;;;;;;;0.50;0.40;;;16.30;99.90;;;;;;5076865;28;20437;-82
2022/05/23 03:00:12;;;;;;;0.50;0.40;;;16.30;99.90;;;;;;5076244;28;20445;-82
2022/05/23 03:05:23;;;;;;;0.50;0.40;;;16.40;99.90;;;;;;5076525;28;20631;-83
2022/05/23 03:07:51;;;;;;;0.50;0.30;;;16.30;99.90;;;;;;5087104;22;20494;-78
2022/05/23 03:10:18;;;;;;;0.50;0.40;;;16.30;99.90;;;;;;5073170;28;20436;-78
2022/05/23 03:12:45;;;;;;;0.50;0.40;;;16.30;99.90;;;;;;5087281;28;20813;-78
2022/05/23 03:15:13;;;;;;;0.50;0.30;;;16.30;99.90;;;;;;5092310;28;20473;-79
2022/05/23 03:17:40;;;;;;;0.50;0.40;;;16.40;99.90;;;;;;5091655;28;20457;-78
2022/05/23 03:20:08;;;;;;;0.50;0.30;;;16.30;99.90;;;;;;5092831;28;20431;-79
2022/05/23 03:28:05;;;;;;;0.50;0.40;;;16.30;99.90;;;;;;5091750;28;20442;-79
2022/05/23 03:30:33;;;;;;;0.50;0.30;;;16.30;99.90;;;;;;5092442;28;20439;-79
2022/05/23 03:33:00;;;;;;;0.50;0.33;;;16.40;99.90;;;;;;5092757;28;20439;-79
2022/05/23 03:35:29;;;;;;;0.50;0.40;;;16.30;99.90;;;;;;5092772;28;20439;-77
2022/05/23 03:37:56;;;;;;;0.50;0.40;;;16.30;99.90;;;;;;5092496;28;20466;-78
2022/05/23 03:40:24;;;;;;;0.50;0.40;;;16.30;99.90;;;;;;5091775;28;20449;-78
2022/05/23 03:42:51;;;;;;;0.50;0.30;;;16.20;99.90;;;;;;5092678;28;20440;-78
2022/05/23 03:45:18;;;;;;;0.50;0.30;;;16.20;99.90;;;;;;5092520;28;20437;-80
2022/05/23 03:47:46;;;;;;;0.50;0.40;;;16.20;99.90;;;;;;5091230;28;20461;-78
2022/05/23 03:50:13;;;;;;;0.50;0.40;;;16.20;99.90;;;;;;5092870;28;20494;-78
2022/05/23 03:52:40;;;;;;;0.50;0.40;;;16.20;99.90;;;;;;5092489;28;20447;-78
2022/05/23 03:55:07;;;;;;;0.50;0.30;;;16.10;99.90;;;;;;5093094;28;20483;-78
2022/05/23 03:57:35;;;;;;;0.50;0.40;;;16.00;99.90;;;;;;5092883;28;20452;-78
2022/05/23 04:00:03;;;;;;;0.50;0.40;;;15.90;99.90;;;;;;5091628;28;20465;-78
2022/05/23 04:02:30;;;;;;;0.50;0.40;;;15.80;99.90;;;;;;5093010;28;20475;-78
2022/05/23 04:04:56;;;;;;;0.50;0.40;;;15.80;99.90;;;;;;5093024;28;20821;-80
2022/05/23 04:07:23;;;;;;;0.53;0.50;;;15.80;99.90;;;;;;5092601;28;20493;-79
2022/05/23 04:09:50;;;;;;;0.50;0.40;;;15.70;99.90;;;;;;5092250;28;20446;-79
2022/05/23 04:12:17;;;;;;;0.50;0.40;;;15.70;99.90;;;;;;5092778;28;20494;-78
2022/05/23 04:14:45;;;;;;;0.50;0.40;;;15.60;99.90;;;;;;5091616;28;20452;-78
2022/05/23 04:17:12;;;;;;;0.50;0.40;;;15.60;99.90;;;;;;5091895;28;20470;-80
2022/05/23 04:19:38;;;;;;;0.50;0.40;;;15.60;99.90;;;;;;5092977;28;20436;-79
2022/05/23 04:22:05;;;;;;;0.50;0.40;;;15.50;99.90;;;;;;5095431;28;20520;-79
2022/05/23 04:24:32;;;;;;;0.50;0.40;;;15.60;99.90;;;;;;5095970;28;20438;-78
2022/05/23 04:26:59;;;;;;;0.50;0.37;;;15.60;99.90;;;;;;5095266;28;20467;-79
2022/05/23 04:29:26;;;;;;;0.50;0.40;;;15.50;99.90;;;;;;5094947;28;20447;-79
2022/05/23 04:31:54;;;;;;;0.50;0.40;;;15.60;99.90;;;;;;5094849;28;20440;-79
2022/05/23 04:37:05;;;;;;;0.50;0.40;;;15.60;99.90;;;;;;5094840;28;20438;-78
2022/05/23 04:39:32;;;;;;;0.50;0.40;;;15.70;99.90;;;;;;5094527;28;20435;-79
2022/05/23 04:42:00;;;;;;;0.50;0.40;;;15.80;99.90;;;;;;5094975;28;20475;-79
2022/05/23 04:44:27;;;;;;;0.50;0.40;;;15.90;99.90;;;;;;5095048;28;20538;-78
2022/05/23 04:49:50;;;;;;;0.50;0.40;;;16.20;99.90;;;;;;5094324;28;20412;-78
2022/05/23 04:52:22;;;;;;;0.50;0.33;;;16.30;99.90;;;;;;5094668;28;20479;-79
2022/05/23 04:54:49;;;;;;;0.50;0.40;;;16.40;99.90;;;;;;5094958;28;20424;-79
2022/05/23 04:57:16;;;;;;;0.50;0.40;;;16.40;99.90;;;;;;5093977;28;20994;-78
2022/05/23 04:59:44;;;;;;;0.50;0.30;;;16.50;99.90;;;;;;5094110;28;20448;-78
2022/05/23 05:02:12;;;;;;;0.50;0.40;;;16.60;99.90;;;;;;5094149;28;20912;-78
2022/05/23 05:04:39;;;;;;;0.50;0.30;;;16.60;99.90;;;;;;5094472;28;20473;-79
2022/05/23 05:07:06;;;;;;;0.50;0.30;;;16.70;99.90;;;;;;5094931;28;20465;-78
2022/05/23 05:09:33;;;;;;;0.50;0.40;;;16.80;99.90;;;;;;5093953;28;20439;-78
2022/05/23 05:12:00;;;;;;;0.50;0.30;;;16.90;99.90;;;;;;5094675;28;20446;-78
2022/05/23 05:14:27;;;;;;;0.50;0.40;;;17.10;99.90;;;;;;5094657;28;20458;-78
2022/05/23 05:16:54;;;;;;;0.50;0.40;;;17.30;99.90;;;;;;5093870;28;20488;-79
2022/05/23 05:19:22;;;;;;;0.50;0.40;;;17.50;99.90;;;;;;5093809;28;20438;-77
2022/05/23 05:21:49;;;;;;;0.50;0.40;;;17.70;99.90;;;;;;5093780;28;20474;-78
2022/05/23 05:24:17;;;;;;;0.60;0.30;;;17.90;99.90;;;;;;5093446;28;20440;-79
2022/05/23 05:26:44;;;;;;;0.50;0.37;;;18.00;99.90;;;;;;5094824;28;20520;-78
2022/05/23 05:29:11;;;;;;;0.60;0.40;;;18.20;99.90;;;;;;5094723;28;20438;-79
2022/05/23 05:31:43;;;;;;;0.50;0.30;;;18.30;99.90;;;;;;5094782;28;20438;-78
2022/05/23 05:34:14;;;;;;;0.50;0.40;;;18.30;99.90;;;;;;5094855;28;20431;-79
2022/05/23 05:36:48;;;;;;;0.50;0.30;;;18.40;99.90;;;;;;5094720;28;20432;-79
2022/05/23 05:39:16;;;;;;;0.50;0.40;;;18.40;99.90;;;;;;5094718;28;20427;-79
2022/05/23 05:41:48;;;;;;;0.50;0.40;;;18.50;99.90;;;;;;5094907;28;20545;-79
2022/05/23 05:44:19;;;;;;;0.50;0.33;;;18.70;99.90;;;;;;5094634;28;20451;-79
2022/05/23 05:46:49;;;;;;;0.50;0.40;;;18.80;99.90;;;;;;5094364;28;20495;-80
2022/05/23 05:49:21;;;;;;;0.50;0.30;;;18.90;99.90;;;;;;5094079;28;20446;-79
2022/05/23 05:51:51;;;;;;;0.50;0.30;;;19.00;99.90;;;;;;5092999;28;20435;-77
2022/05/23 05:54:21;;;;;;;0.50;0.30;;;19.20;99.90;;;;;;5093428;28;20447;-78
2022/05/23 05:56:48;;;;;;;0.50;0.40;;;19.30;99.90;;;;;;5093059;28;20420;-77
2022/05/23 05:59:16;;;;;;;0.50;0.30;;;19.50;99.90;;;;;;5095452;28;20843;-77
2022/05/23 06:01:42;;;;;;;0.50;0.30;;;19.70;99.90;;;;;;5093009;28;20478;-77
2022/05/23 06:04:09;;;;;;;0.50;0.30;;;19.80;99.90;;;;;;5093202;28;20435;-78
2022/05/23 06:12:06;;;;;;;0.50;0.50;;;20.00;99.90;;;;;;5092319;28;20410;-78
2022/05/23 06:14:34;;;;;;;0.50;0.40;;;19.90;99.90;;;;;;5092677;28;20447;-78
2022/05/23 06:17:01;;;;;;;0.50;0.30;;;19.80;99.90;;;;;;5092814;28;20618;-77
2022/05/23 06:19:28;;;;;;;0.50;0.30;;;19.60;99.90;;;;;;5092316;28;20466;-79
2022/05/23 06:21:55;;;;;;;1.23;1.23;;;19.50;99.90;;;;;;5091978;28;20471;-77
2022/05/23 06:24:23;;;;;;;0.50;0.30;;;19.60;99.90;;;;;;5110786;28;20455;-78
2022/05/23 06:26:49;;;;;;;0.50;0.40;;;19.60;99.90;;;;;;5113656;28;20436;-78
2022/05/23 06:29:16;;;;;;;0.50;0.40;;;19.70;99.90;;;;;;5114846;28;20439;-79
2022/05/23 06:31:46;;;;;;;0.50;0.30;;;19.80;99.90;;;;;;5113258;28;20430;-79
2022/05/23 06:34:12;;;;;;;0.50;0.30;;;19.90;99.90;;;;;;5112573;28;20431;-78
2022/05/23 06:36:39;;;;;;;0.50;0.30;;;20.20;99.90;;;;;;5112144;28;20430;-79
2022/05/23 06:39:06;;;;;;;0.50;0.30;;;20.50;99.90;;;;;;5113951;28;20477;-79
2022/05/23 06:41:34;;;;;;;0.50;0.30;;;20.70;99.90;;;;;;5114202;28;20451;-79
2022/05/23 06:44:01;;;;;;;0.50;0.30;;;21.00;99.90;;;;;;5114769;28;20423;-79
2022/05/23 06:46:28;;;;;;;0.60;0.43;;;21.40;99.90;;;;;;5116776;28;20439;-79
2022/05/23 06:48:54;;;;;;;0.50;0.30;;;21.80;99.90;;;;;;5116353;28;20451;-81
2022/05/23 06:51:21;;;;;;;0.70;0.70;;;22.20;99.90;;;;;;5116323;28;20427;-80
2022/05/23 06:53:48;;;;;;;0.50;0.30;;;22.30;99.90;;;;;;5114601;28;20434;-79
2022/05/23 06:56:15;;;;;;;0.50;0.30;;;22.60;99.90;;;;;;5115503;28;20442;-80
2022/05/23 06:58:43;;;;;;;0.50;0.30;;;22.80;99.90;;;;;;5115954;28;20450;-79
2022/05/23 07:01:11;;;;;;;0.50;0.30;;;22.90;99.90;;;;;;5116484;28;20443;-79
2022/05/23 07:03:37;;;;;;;0.50;0.40;;;23.00;99.90;;;;;;5116125;28;20502;-79
2022/05/23 07:14:21;;;;;;;0.50;0.30;;;23.10;99.90;;;;;;5115096;28;20411;-79
2022/05/23 07:16:48;;;;;;;0.50;0.30;;;23.20;99.90;;;;;;5115636;28;20419;-80
2022/05/23 07:19:15;;;;;;;0.50;0.30;;;23.30;99.90;;;;;;5095252;28;20899;-78
2022/05/23 07:21:42;;;;;;;0.50;0.30;;;23.50;99.90;;;;;;5091749;28;20443;-79
2022/05/23 07:24:08;;;;;;;0.50;0.30;;;23.60;99.90;;;;;;5093451;28;20924;-80
2022/05/23 07:26:37;;;;;;;0.50;0.30;;;23.90;99.90;;;;;;5092366;28;20443;-78
2022/05/23 07:29:04;;;;;;;0.50;0.30;;;24.00;99.90;;;;;;5092127;28;20468;-79
2022/05/23 07:31:32;;;;;;;0.50;0.30;;;24.20;99.90;;;;;;5100698;28;20466;-80
2022/05/23 07:33:59;;;;;;;0.50;0.30;;;24.40;99.90;;;;;;5100507;28;20435;-79
2022/05/23 07:36:26;;;;;;;0.50;0.30;;;24.40;99.90;;;;;;5105273;28;20461;-78
2022/05/23 07:38:53;;;;;;;0.50;0.37;;;24.60;99.90;;;;;;5101089;28;21025;-79
2022/05/23 07:41:20;;;;;;;0.50;0.30;;;25.10;99.90;;;;;;5094193;28;20447;-78
2022/05/23 07:43:46;;;;;;;0.50;0.40;;;25.80;99.90;;;;;;5097192;28;20975;-78
2022/05/23 07:46:15;;;;;;;0.50;0.30;;;26.20;90.80;;;;;;5092721;28;20443;-79
2022/05/23 07:48:45;;;;;;;0.50;0.30;;;26.10;84.90;;;;;;5092011;28;20467;-78
2022/05/23 07:51:13;;;;;;;0.50;0.30;;;26.40;86.30;;;;;;5091557;28;20439;-79
2022/05/23 08:01:53;;;;;;;0.50;0.30;;;28.30;68.60;;;;;;5096044;28;20927;-78
2022/05/23 08:04:22;;;;;;;0.50;0.30;;;27.50;72.80;;;;;;5096070;28;20912;-79
2022/05/23 08:06:49;;;;;;;0.50;0.30;;;27.90;70.30;;;;;;5095706;28;20447;-79
2022/05/23 08:09:18;;;;;;;0.50;0.30;;;29.10;69.40;;;;;;5095588;28;20462;-79
2022/05/23 08:11:48;;;;;;;0.60;0.40;;;28.80;66.50;;;;;;5096309;28;20482;-79
2022/05/23 08:14:15;;;;;;;0.60;0.50;;;28.60;69.20;;;;;;5096438;28;20955;-79
2022/05/23 08:16:43;;;;;;;0.50;0.40;;;29.30;65.60;;;;;;5095912;28;20442;-79
2022/05/23 08:19:09;;;;;;;0.50;0.30;;;30.00;65.00;;;;;;5096759;28;20466;-77
2022/05/23 08:21:43;;;;;;;0.50;0.30;;;30.40;66.30;;;;;;5095387;28;20487;-79
2022/05/23 08:24:10;;;;;;;0.50;0.30;;;31.30;63.10;;;;;;5095578;28;20455;-79
2022/05/23 08:26:37;;;;;;;0.50;0.30;;;31.20;61.30;;;;;;5096506;28;20788;-79
2022/05/23 08:29:04;;;;;;;0.50;0.40;;;30.90;59.30;;;;;;5095137;28;20455;-78
2022/05/23 08:31:31;;;;;;;0.50;0.30;;;30.40;58.30;;;;;;5095049;28;20435;-78
2022/05/23 08:33:58;;;;;;;0.60;0.50;;;29.40;60.00;;;;;;5095440;28;20431;-78
2022/05/23 08:36:24;;;;;;;0.80;0.70;;;30.30;60.10;;;;;;5095504;28;20461;-78
2022/05/23 08:38:53;;;;;;;0.60;0.40;;;31.30;59.40;;;;;;5094685;28;20455;-78
2022/05/23 08:41:25;;;;;;;0.50;0.40;;;32.40;57.50;;;;;;5095301;28;20927;-79
2022/05/23 08:44:02;;;;;;;0.50;0.30;;;33.90;55.20;;;;;;5094731;28;20478;-78
2022/05/23 08:46:37;;;;;;;0.50;0.30;;;33.70;53.80;;;;;;5094738;28;20453;-79
2022/05/23 08:49:09;;;;;;;1.03;0.50;;;32.70;54.40;;;;;;5094453;28;20485;-78
2022/05/23 08:51:44;;;;;;;0.50;0.30;;;31.70;55.30;;;;;;5094524;28;20431;-78
2022/05/23 08:54:22;;;;;;;0.50;0.30;;;30.60;57.20;;;;;;5094242;28;21018;-79
2022/05/23 08:56:53;;;;;;;0.50;0.30;;;30.50;57.70;;;;;;5094716;28;20446;-78
2022/05/23 08:59:25;;;;;;;0.50;0.30;;;29.60;59.80;;;;;;5094255;28;20440;-78
2022/05/23 09:01:56;;;;;;;0.50;0.40;;;29.10;60.10;;;;;;5094498;28;20443;-76
2022/05/23 09:04:33;;;;;;;0.50;0.30;;;29.10;62.10;;;;;;5095182;28;20435;-79
2022/05/23 09:07:01;;;;;;;0.50;0.30;;;28.70;60.90;;;;;;5094217;28;20442;-79
2022/05/23 09:09:32;;;;;;;0.60;0.40;;;29.10;61.60;;;;;;5096079;28;20439;-78
2022/05/23 09:12:05;;;;;;;0.50;0.30;;;30.00;61.20;;;;;;5094671;28;20957;-79
2022/05/23 09:14:32;;;;;;;0.50;0.30;;;30.80;60.20;;;;;;5099599;28;20785;-79
2022/05/23 09:16:59;;;;;;;0.50;0.30;;;31.00;58.10;;;;;;5103820;28;20428;-78
2022/05/23 09:19:31;;;;;;;0.50;0.40;;;30.90;58.60;;;;;;5102479;28;20439;-79
2022/05/23 09:22:15;;;;;;;0.50;0.30;;;31.50;57.50;;;;;;5094605;28;20839;-78
2022/05/23 09:24:46;;;;;;;0.50;0.30;;;31.80;58.30;;;;;;5094264;28;20917;-79
2022/05/23 09:27:18;;;;;;;0.50;0.40;;;30.80;58.20;;;;;;5093749;28;21002;-79
2022/05/23 09:29:50;;;;;;;0.60;0.60;;;30.20;58.20;;;;;;5094410;28;20423;-78
2022/05/23 09:32:19;;;;;;;0.60;0.50;;;29.50;60.00;;;;;;5095191;28;20416;-78
2022/05/23 09:34:49;;;;;;;0.50;0.30;;;28.80;62.60;;;;;;5093979;28;20506;-78
2022/05/23 09:37:21;;;;;;;0.87;0.67;;;28.30;63.70;;;;;;5093427;28;20999;-76
2022/05/23 09:39:54;;;;;;;0.50;0.40;;;28.00;64.80;;;;;;5093855;28;20446;-74
2022/05/23 09:48:15;;;;;;;0.67;0.57;;;27.10;68.40;;;;;;5093424;28;20439;-79
2022/05/23 09:50:46;;;;;;;0.50;0.30;;;27.30;68.90;;;;;;5093676;28;20807;-78
2022/05/23 09:53:24;;;;;;;0.50;0.30;;;28.20;66.30;;;;;;5093275;28;20517;-78
2022/05/23 09:55:53;;;;;;;0.50;0.30;;;28.90;67.30;;;;;;5094038;28;20486;-78
2022/05/23 09:58:25;;;;;;;0.50;0.30;;;29.50;64.30;;;;;;5093658;28;20461;-78
2022/05/23 10:00:59;;;;;;;0.50;0.30;;;30.00;62.10;;;;;;5094071;28;20528;-79
2022/05/23 10:03:28;;;;;;;0.80;0.50;;;30.40;60.20;;;;;;5093495;28;20517;-78
2022/05/23 10:06:05;;;;;;;0.50;0.30;;;30.70;59.40;;;;;;5093882;28;20448;-79
2022/05/23 10:08:34;;;;;;;0.50;0.30;;;31.50;58.80;;;;;;5092748;28;20980;-79
2022/05/23 10:11:06;;;;;;;0.50;0.30;;;30.80;58.80;;;;;;5093621;28;20441;-78
2022/05/23 10:13:36;;;;;;;0.60;0.50;;;30.90;58.90;;;;;;5093781;28;20435;-78
2022/05/23 10:16:15;;;;;;;0.50;0.30;;;31.00;59.50;;;;;;5093536;28;20447;-78
2022/05/23 10:18:50;;;;;;;0.50;0.40;;;31.70;58.20;;;;;;5092137;28;20461;-79
2022/05/23 10:21:25;;;;;;;0.50;0.30;;;31.10;58.60;;;;;;5093414;28;20443;-78
2022/05/23 10:24:02;;;;;;;1.77;1.10;;;30.30;60.20;;;;;;5093271;28;20477;-78
2022/05/23 10:26:33;;;;;;;0.60;0.50;;;29.90;59.80;;;;;;5092970;28;20517;-78
2022/05/23 10:29:08;;;;;;;0.50;0.30;;;29.10;60.20;;;;;;5093282;28;20494;-79
2022/05/23 10:31:41;;;;;;;2.40;1.13;;;29.10;63.20;;;;;;5093132;28;20419;-78
2022/05/23 10:34:20;;;;;;;0.50;0.30;;;29.10;62.40;;;;;;5092609;28;20960;-79
2022/05/23 10:36:53;;;;;;;0.50;0.30;;;29.30;62.10;;;;;;5092411;28;20439;-79
2022/05/23 10:42:15;;;;;;;0.73;0.40;;;29.40;60.80;;;;;;5092817;28;20414;-76
2022/05/23 10:45:00;;;;;;;0.60;0.47;;;29.20;59.60;;;;;;5092360;28;20478;-79
2022/05/23 10:47:38;;;;;;;0.50;0.30;;;29.50;59.60;;;;;;5092985;28;20483;-79
2022/05/23 10:50:15;;;;;;;0.60;0.40;;;30.10;61.00;;;;;;5092026;28;20415;-80
2022/05/23 10:52:52;;;;;;;0.50;0.50;;;30.70;60.50;;;;;;5092364;28;20435;-77
2022/05/23 10:55:21;;;;;;;0.50;0.30;;;30.60;58.50;;;;;;5092481;28;20522;-78
2022/05/23 10:58:02;;;;;;;0.50;0.30;;;29.50;59.80;;;;;;5092265;28;20863;-77
2022/05/23 11:00:35;;;;;;;0.50;0.30;;;29.60;60.80;;;;;;5091843;28;20443;-78
2022/05/23 11:03:09;;;;;;;0.50;0.30;;;28.30;62.40;;;;;;5091903;28;20857;-78
2022/05/23 11:05:42;;;;;;;0.50;0.30;;;28.30;64.70;;;;;;5092054;28;20501;-78
2022/05/23 11:08:26;;;;;;;0.97;0.97;;;28.50;65.60;;;;;;5091406;28;20471;-80
2022/05/23 11:10:58;;;;;;;0.50;0.30;;;29.20;64.70;;;;;;5091857;28;20404;-78
2022/05/23 11:13:37;;;;;;;0.50;0.40;;;29.80;62.40;;;;;;5092556;28;20827;-79
2022/05/23 11:16:11;;;;;;;0.50;0.30;;;29.10;63.40;;;;;;5091409;28;20427;-78
2022/05/23 11:18:52;;;;;;;0.50;0.30;;;29.50;63.10;;;;;;5092205;28;20451;-79
2022/05/23 11:21:24;;;;;;;0.50;0.30;;;30.80;62.70;;;;;;5092519;28;20843;-79
2022/05/23 11:23:58;;;;;;;0.60;0.37;;;31.50;59.70;;;;;;5091813;28;20485;-78
2022/05/23 11:26:30;;;;;;;0.50;0.30;;;31.60;59.20;;;;;;5093789;28;20427;-79
2022/05/23 11:34:42;;;;;;;0.50;0.40;;;32.40;58.90;;;;;;5091445;28;20782;-76
2022/05/23 11:37:42;;;;;;;0.53;0.47;;;31.60;59.10;;;;;;5091540;28;20451;-77
2022/05/23 11:40:01;;;;;;;0.50;0.30;;;32.30;60.30;;;;;;5091301;28;20431;-79
2022/05/23 11:42:31;;;;;;;0.50;0.30;;;32.60;58.00;;;;;;5091515;28;20488;-78
2022/05/23 11:48:45;;;;;;;0.60;0.40;;;32.60;58.10;;;;;;5009261;28;20833;-79
2022/05/23 11:51:18;;;;;;;0.60;0.50;;;32.40;57.90;;;;;;5086163;28;20441;-80
2022/05/23 11:53:56;;;;;;;0.70;0.50;;;33.20;57.90;;;;;;5091983;28;20928;-79
2022/05/23 11:57:12;;;;;;;0.70;0.70;;;33.60;56.60;;;;;;5092111;28;20500;-78
2022/05/23 12:00:05;;;;;;;2.20;0.90;;;32.80;56.70;;;;;;5009520;28;20446;-79
2022/05/23 12:02:38;;;;;;;0.50;0.30;;;31.60;59.10;;;;;;5091512;28;20415;-78
2022/05/23 12:05:31;;;;;;;0.50;0.30;;;31.30;60.00;;;;;;5091020;28;20463;-79
2022/05/23 12:08:07;;;;;;;0.50;0.40;;;30.90;60.90;;;;;;5082926;28;20495;-78
2022/05/23 12:10:55;;;;;;;0.50;0.30;;;31.50;61.10;;;;;;5079363;28;20430;-79
2022/05/23 12:13:52;;;;;;;0.50;0.30;;;32.20;60.30;;;;;;5088104;28;20932;-79
2022/05/23 12:16:39;;;;;;;0.70;0.70;;;33.20;59.20;;;;;;5091769;28;20438;-80
2022/05/23 12:19:27;;;;;;;0.50;0.30;;;33.30;58.50;;;;;;5088430;28;20471;-78
2022/05/23 12:22:13;;;;;;;0.60;0.50;;;33.30;57.10;;;;;;5091435;28;20431;-79
2022/05/23 12:24:57;;;;;;;0.50;0.30;;;33.00;57.20;;;;;;5091750;28;20482;-79
2022/05/23 12:27:31;;;;;;;0.60;0.40;;;32.50;58.10;;;;;;5090926;28;20494;-78
2022/05/23 12:30:31;;;;;;;0.50;0.40;;;32.20;58.50;;;;;;5091369;28;20434;-79
2022/05/23 12:33:08;;;;;;;0.50;0.30;;;31.80;59.10;;;;;;5091531;28;20427;-77
2022/05/23 12:35:55;;;;;;;0.67;0.40;;;31.70;60.00;;;;;;5091567;28;20439;-78
2022/05/23 12:39:01;;;;;;;0.50;0.30;;;31.00;60.60;;;;;;5090998;28;21096;-79
2022/05/23 12:41:46;;;;;;;1.10;0.67;;;30.70;63.80;;;;;;5070735;28;20466;-79
2022/05/23 12:44:34;;;;;;;0.50;0.30;;;29.80;64.20;;;;;;5094821;28;20475;-79
2022/05/23 12:47:11;;;;;;;0.50;0.30;;;29.50;65.40;;;;;;5094928;28;20426;-80
2022/05/23 12:49:50;;;;;;;0.90;0.60;;;29.40;67.00;;;;;;5095027;28;20419;-78
2022/05/23 12:52:35;;;;;;;0.50;0.37;;;28.80;67.10;;;;;;5095135;28;20498;-77
2022/05/23 12:55:20;;;;;;;1.03;0.93;;;27.70;70.00;;;;;;5096077;28;20427;-79
2022/05/23 12:58:26;;;;;;;0.50;0.30;;;27.50;72.90;;;;;;5094909;28;20825;-76
2022/05/23 13:00:59;;;;;;;0.60;0.60;;;27.50;74.40;;;;;;5095951;28;20419;-78
2022/05/23 13:03:32;;;;;;;0.67;0.60;;;27.30;74.70;;;;;;5094846;28;20932;-79
2022/05/23 13:06:07;;;;;;;0.50;0.30;;;27.00;76.00;;;;;;5094680;28;20431;-76
2022/05/23 13:08:45;;;;;;;0.50;0.30;;;27.00;79.00;;;;;;5093238;28;20462;-79
2022/05/23 13:11:19;;;;;;;0.50;0.30;;;27.00;80.20;;;;;;5094854;28;20424;-79
2022/05/23 13:13:47;;;;;;;0.50;0.30;;;27.00;82.90;;;;;;5094335;28;21099;-79
2022/05/23 13:16:17;;;;;;;0.50;0.30;;;26.80;86.90;;;;;;5094183;28;20439;-79
2022/05/23 13:24:48;;;;;;;0.50;0.37;;;26.00;97.10;;;;;;5094460;28;20466;-78
2022/05/23 13:27:03;;;;;;;0.50;0.30;;;25.80;99.90;;;;;;5093754;28;20956;-78
2022/05/23 13:29:31;;;;;;;1.00;0.70;;;25.60;99.90;;;;;;5094549;28;20467;-79
2022/05/23 13:31:59;;;;;;;0.50;0.30;;;25.50;99.90;;;;;;5094392;28;20468;-79
2022/05/23 13:34:31;;;;;;;1.53;0.60;;;25.40;99.90;;;;;;5094092;28;20439;-77
2022/05/23 13:36:58;;;;;;;0.50;0.40;;;25.20;99.90;;;;;;5094344;28;20443;-79
2022/05/23 13:39:27;;;;;;;0.50;0.30;;;24.80;99.90;;;;;;5094006;28;20439;-79
2022/05/23 13:41:53;;;;;;;0.50;0.30;;;24.20;99.90;;;;;;5093776;28;20446;-76
2022/05/23 13:44:23;;;;;;;0.50;0.30;;;24.00;99.90;;;;;;5094607;28;20842;-79
2022/05/23 13:46:52;;;;;;;1.80;0.60;;;23.70;99.90;;;;;;5094005;28;20443;-78
2022/05/23 13:49:23;;;;;;;0.60;0.57;;;23.60;99.90;;;;;;5093597;28;20442;-79
2022/05/23 13:51:53;;;;;;;0.50;0.40;;;23.50;99.90;;;;;;5093525;28;20782;-79
2022/05/23 13:54:25;;;;;;;0.50;0.30;;;23.40;99.90;;;;;;5093596;28;20445;-79
2022/05/23 13:56:56;;;;;;;0.50;0.30;;;23.30;99.90;;;;;;5093378;28;20427;-78
2022/05/23 13:59:27;;;;;;;0.50;0.40;;;23.20;99.90;;;;;;5093202;28;20846;-78
2022/05/23 14:01:58;;;;;;;0.50;0.30;;;23.00;99.90;;;;;;5093171;28;20443;-78
2022/05/23 14:04:28;;;;;;;0.50;0.30;;;22.90;99.90;;;;;;5093731;28;20534;-78
2022/05/23 14:07:00;;;;;;;0.60;0.50;;;22.80;99.90;;;;;;5093261;28;20427;-78
2022/05/23 14:09:27;;;;;;;0.50;0.30;;;22.40;99.90;;;;;;5093292;28;20432;-79
2022/05/23 14:12:03;;;;;;;0.50;0.30;;;21.80;99.90;;;;;;5093454;28;20443;-76
2022/05/23 14:14:34;;;;;;;0.97;0.67;;;21.40;99.90;;;;;;5095982;28;20421;-78